createdAt,value
2018-08-22T00:00:26.359Z,98534.03
2018-08-22T00:02:54.963Z,98531.97
2018-08-22T00:05:23.650Z,98527.48
2018-08-22T00:07:52.345Z,98534.72
2018-08-22T00:10:21.333Z,98532.68
2018-08-22T00:12:50.602Z,98531.61
2018-08-22T00:15:19.038Z,98534.30
2018-08-22T00:17:47.530Z,98529.05
2018-08-22T00:20:16.280Z,98522.97
2018-08-22T00:22:44.959Z,98517.52
2018-08-22T00:25:13.856Z,98517.97
2018-08-22T00:27:42.431Z,98521.95
2018-08-22T00:30:10.673Z,98517.52
2018-08-22T00:32:39.302Z,98521.59
2018-08-22T00:35:07.928Z,98513.71
2018-08-22T00:37:36.732Z,98510.72
2018-08-22T00:40:05.128Z,98510.95
2018-08-22T00:42:33.855Z,98510.17
2018-08-22T00:45:02.596Z,98515.95
2018-08-22T00:47:31.916Z,98516.02
2018-08-22T00:50:02.385Z,98514.64
2018-08-22T00:52:33.116Z,98503.59
2018-08-22T00:55:02.274Z,98511.31
2018-08-22T00:57:31.226Z,98508.95
2018-08-22T00:59:59.542Z,98515.41
2018-08-22T01:02:28.161Z,98516.75
2018-08-22T01:04:56.625Z,98515.66
2018-08-22T01:07:25.032Z,98512.38
2018-08-22T01:09:53.256Z,98506.27
2018-08-22T01:12:21.850Z,98508.09
2018-08-22T01:14:50.059Z,98506.31
2018-08-22T01:17:18.332Z,98512.13
2018-08-22T01:19:46.665Z,98511.14
2018-08-22T01:22:14.900Z,98509.69
2018-08-22T01:24:43.119Z,98507.08
2018-08-22T01:27:16.210Z,98499.24
2018-08-22T01:29:44.483Z,98502.97
2018-08-22T01:32:12.970Z,98498.91
2018-08-22T01:34:41.345Z,98500.70
2018-08-22T01:37:09.596Z,98499.22
2018-08-22T01:39:38.505Z,98502.33
2018-08-22T01:42:06.995Z,98503.16
2018-08-22T01:44:35.316Z,98500.27
2018-08-22T01:47:03.709Z,98494.09
2018-08-22T01:49:31.947Z,98493.48
2018-08-22T01:52:00.531Z,98495.75
2018-08-22T01:54:28.887Z,98494.11
2018-08-22T01:56:57.166Z,98491.96
2018-08-22T01:59:26.369Z,98494.11
2018-08-22T02:01:54.612Z,98492.36
2018-08-22T02:04:23.116Z,98493.36
2018-08-22T02:06:51.351Z,98495.98
2018-08-22T02:09:19.601Z,98498.06
2018-08-22T02:11:47.876Z,98488.60
2018-08-22T02:14:16.604Z,98497.10
2018-08-22T02:16:45.239Z,98490.89
2018-08-22T02:19:13.418Z,98488.62
2018-08-22T02:21:41.865Z,98492.21
2018-08-22T02:24:10.473Z,98489.11
2018-08-22T02:26:38.708Z,98487.18
2018-08-22T02:29:07.294Z,98493.23
2018-08-22T02:31:35.604Z,98488.83
2018-08-22T02:34:03.832Z,98489.33
2018-08-22T02:36:32.217Z,98484.80
2018-08-22T02:39:00.418Z,98484.17
2018-08-22T02:41:28.633Z,98486.65
2018-08-22T02:43:56.855Z,98483.88
2018-08-22T02:46:25.473Z,98481.27
2018-08-22T02:48:53.757Z,98482.23
2018-08-22T02:51:22.424Z,98477.78
2018-08-22T02:53:50.913Z,98477.64
2018-08-22T02:56:19.397Z,98477.66
2018-08-22T02:58:47.670Z,98480.45
2018-08-22T03:01:16.099Z,98484.21
2018-08-22T03:03:44.362Z,98481.27
2018-08-22T03:06:12.610Z,98487.33
2018-08-22T03:08:41.632Z,98482.28
2018-08-22T03:11:10.177Z,98485.24
2018-08-22T03:13:39.312Z,98487.22
2018-08-22T03:16:08.338Z,98485.23
2018-08-22T03:18:36.694Z,98479.03
2018-08-22T03:21:04.913Z,98481.02
2018-08-22T03:23:33.493Z,98482.00
2018-08-22T03:26:02.110Z,98481.33
2018-08-22T03:28:30.364Z,98490.47
2018-08-22T03:30:58.579Z,98486.41
2018-08-22T03:33:27.170Z,98489.02
2018-08-22T03:35:55.400Z,98491.00
2018-08-22T03:38:24.228Z,98487.75
2018-08-22T03:40:52.842Z,98480.88
2018-08-22T03:43:21.071Z,98483.67
2018-08-22T03:45:49.349Z,98482.03
2018-08-22T03:48:17.944Z,98492.34
2018-08-22T03:50:46.164Z,98486.28
2018-08-22T03:53:14.388Z,98482.70
2018-08-22T03:55:42.657Z,98488.91
2018-08-22T03:58:11.256Z,98487.92
2018-08-22T04:00:40.030Z,98487.26
2018-08-22T04:03:08.619Z,98483.03
2018-08-22T04:05:36.997Z,98483.37
2018-08-22T04:08:05.865Z,98500.36
2018-08-22T04:10:34.190Z,98500.69
2018-08-22T04:13:02.389Z,98498.05
2018-08-22T04:15:30.617Z,98498.87
2018-08-22T04:17:59.227Z,98494.30
2018-08-22T04:20:27.468Z,98496.42
2018-08-22T04:22:55.750Z,98495.59
2018-08-22T04:25:24.372Z,98497.42
2018-08-22T04:27:52.704Z,98495.45
2018-08-22T04:30:21.013Z,98502.95
2018-08-22T04:32:49.512Z,98500.69
2018-08-22T04:35:18.029Z,98498.70
2018-08-22T04:37:46.248Z,98507.20
2018-08-22T04:40:14.761Z,98511.30
2018-08-22T04:42:42.978Z,98513.73
2018-08-22T04:45:11.304Z,98512.61
2018-08-22T04:47:39.964Z,98511.79
2018-08-22T04:50:08.145Z,98513.58
2018-08-22T04:52:37.005Z,98510.64
2018-08-22T04:55:05.560Z,98515.37
2018-08-22T04:57:34.297Z,98509.83
2018-08-22T05:00:02.819Z,98511.27
2018-08-22T05:02:31.285Z,98514.05
2018-08-22T05:04:59.485Z,98517.63
2018-08-22T05:07:28.455Z,98517.33
2018-08-22T05:09:57.036Z,98516.17
2018-08-22T05:12:25.801Z,98519.58
2018-08-22T05:17:29.985Z,98517.11
2018-08-22T05:19:58.951Z,98519.20
2018-08-22T05:22:27.197Z,98515.11
2018-08-22T05:24:56.292Z,98516.90
2018-08-22T05:27:25.007Z,98516.59
2018-08-22T05:29:53.780Z,98517.55
2018-08-22T05:32:22.333Z,98517.09
2018-08-22T05:34:51.547Z,98514.95
2018-08-22T05:37:20.081Z,98514.88
2018-08-22T05:39:48.820Z,98512.91
2018-08-22T05:42:17.499Z,98509.91
2018-08-22T05:44:46.834Z,98514.92
2018-08-22T05:47:15.314Z,98513.43
2018-08-22T05:49:43.785Z,98520.51
2018-08-22T05:52:12.152Z,98517.89
2018-08-22T05:54:40.386Z,98519.30
2018-08-22T05:57:09.308Z,98518.62
2018-08-22T05:59:37.658Z,98518.89
2018-08-22T06:02:06.272Z,98525.20
2018-08-22T06:04:34.482Z,98525.38
2018-08-22T06:07:02.777Z,98526.62
2018-08-22T06:09:31.024Z,98526.53
2018-08-22T06:11:59.382Z,98528.91
2018-08-22T06:14:28.051Z,98528.83
2018-08-22T06:16:56.430Z,98534.61
2018-08-22T06:19:25.295Z,98534.55
2018-08-22T06:21:54.222Z,98534.58
2018-08-22T06:24:22.496Z,98535.66
2018-08-22T06:26:51.117Z,98535.16
2018-08-22T06:29:19.500Z,98530.72
2018-08-22T06:31:47.792Z,98528.17
2018-08-22T06:34:17.101Z,98530.87
2018-08-22T06:36:45.694Z,98532.10
2018-08-22T06:39:13.998Z,98536.05
2018-08-22T06:41:43.929Z,98531.93
2018-08-22T06:44:12.906Z,98533.15
2018-08-22T06:46:42.494Z,98535.47
2018-08-22T06:49:12.432Z,98536.23
2018-08-22T06:51:40.781Z,98535.80
2018-08-22T06:54:09.901Z,98534.84
2018-08-22T06:56:38.112Z,98531.64
2018-08-22T06:59:07.884Z,98526.11
2018-08-22T07:01:36.443Z,98529.67
2018-08-22T07:04:05.108Z,98525.03
2018-08-22T07:06:33.621Z,98531.69
2018-08-22T07:09:01.862Z,98539.36
2018-08-22T07:11:30.516Z,98531.14
2018-08-22T07:13:59.445Z,98533.39
2018-08-22T07:16:27.623Z,98522.81
2018-08-22T07:18:55.959Z,98523.61
2018-08-22T07:21:24.419Z,98515.22
2018-08-22T07:23:52.637Z,98523.75
2018-08-22T07:26:21.525Z,98521.34
2018-08-22T07:28:49.962Z,98524.08
2018-08-22T07:31:18.588Z,98516.34
2018-08-22T07:33:46.799Z,98515.86
2018-08-22T07:36:14.982Z,98519.75
2018-08-22T07:38:43.233Z,98516.80
2018-08-22T07:41:11.830Z,98516.32
2018-08-22T07:43:40.228Z,98518.30
2018-08-22T07:46:08.913Z,98510.11
2018-08-22T07:48:37.550Z,98515.23
2018-08-22T07:51:06.497Z,98513.31
2018-08-22T07:53:34.728Z,98514.73
2018-08-22T07:56:03.114Z,98517.50
2018-08-22T07:58:31.661Z,98520.55
2018-08-22T08:00:59.965Z,98525.61
2018-08-22T08:03:28.464Z,98524.68
2018-08-22T08:05:57.030Z,98518.03
2018-08-22T08:08:25.541Z,98516.60
2018-08-22T08:10:55.121Z,98515.77
2018-08-22T08:13:27.195Z,98517.65
2018-08-22T08:15:55.695Z,98521.47
2018-08-22T08:18:23.938Z,98520.53
2018-08-22T08:20:52.164Z,98517.39
2018-08-22T08:23:20.404Z,98520.95
2018-08-22T08:25:48.596Z,98517.26
2018-08-22T08:28:18.337Z,98517.63
2018-08-22T08:30:47.112Z,98516.15
2018-08-22T08:33:15.339Z,98515.77
2018-08-22T08:35:43.620Z,98509.06
2018-08-22T08:38:12.116Z,98504.70
2018-08-22T08:40:40.339Z,98504.28
2018-08-22T08:43:08.855Z,98506.45
2018-08-22T08:45:38.623Z,98508.68
2018-08-22T08:48:06.931Z,98503.52
2018-08-22T08:50:35.194Z,98501.64
2018-08-22T08:53:04.413Z,98504.83
2018-08-22T08:55:33.020Z,98502.96
2018-08-22T08:58:01.364Z,98496.52
2018-08-22T09:00:29.601Z,98500.50
2018-08-22T09:02:57.930Z,98501.70
2018-08-22T09:05:27.436Z,98501.03
2018-08-22T09:07:55.807Z,98494.08
2018-08-22T09:10:24.498Z,98492.53
2018-08-22T09:12:53.078Z,98494.38
2018-08-22T09:15:21.374Z,98486.98
2018-08-22T09:17:50.605Z,98489.78
2018-08-22T09:20:19.427Z,98490.95
2018-08-22T09:22:47.934Z,98489.97
2018-08-22T09:25:16.185Z,98494.98
2018-08-22T09:27:44.638Z,98487.02
2018-08-22T09:30:13.176Z,98488.38
2018-08-22T09:32:41.770Z,98481.61
2018-08-22T09:35:10.059Z,98479.28
2018-08-22T09:37:39.015Z,98484.05
2018-08-22T09:40:08.662Z,98477.25
2018-08-22T09:42:36.897Z,98469.72
2018-08-22T09:45:05.761Z,98464.09
2018-08-22T09:47:34.671Z,98464.61
2018-08-22T09:50:03.075Z,98468.27
2018-08-22T09:52:31.601Z,98457.77
2018-08-22T09:55:03.973Z,98453.97
2018-08-22T09:57:32.694Z,98456.16
2018-08-22T10:00:01.104Z,98453.22
2018-08-22T10:02:30.037Z,98443.61
2018-08-22T10:04:59.703Z,98438.64
2018-08-22T10:07:28.073Z,98444.84
2018-08-22T10:09:56.542Z,98436.54
2018-08-22T10:12:24.777Z,98435.46
2018-08-22T10:14:53.475Z,98436.69
2018-08-22T10:17:21.788Z,98429.30
2018-08-22T10:19:50.028Z,98427.94
2018-08-22T10:22:18.815Z,98423.89
2018-08-22T10:24:47.333Z,98422.95
2018-08-22T10:27:16.173Z,98419.89
2018-08-22T10:29:44.533Z,98418.55
2018-08-22T10:32:13.114Z,98414.55
2018-08-22T10:34:42.109Z,98414.08
2018-08-22T10:37:10.722Z,98412.03
2018-08-22T10:39:39.210Z,98408.81
2018-08-22T10:42:08.203Z,98411.61
2018-08-22T10:44:36.586Z,98410.33
2018-08-22T10:47:05.288Z,98405.95
2018-08-22T10:49:33.932Z,98403.82
2018-08-22T10:52:02.163Z,98401.70
2018-08-22T10:54:30.489Z,98399.63
2018-08-22T10:56:58.730Z,98392.11
2018-08-22T10:59:27.472Z,98390.77
2018-08-22T11:01:55.984Z,98394.80
2018-08-22T11:04:25.286Z,98388.84
2018-08-22T11:06:55.622Z,98384.31
2018-08-22T11:09:25.117Z,98382.11
2018-08-22T11:11:53.428Z,98377.45
2018-08-22T11:14:21.829Z,98377.80
2018-08-22T11:16:50.542Z,98376.86
2018-08-22T11:19:19.161Z,98375.25
2018-08-22T11:22:04.786Z,98377.18
2018-08-22T11:24:50.301Z,98367.75
2018-08-22T11:27:35.765Z,98364.80
2018-08-22T11:30:21.181Z,98367.36
2018-08-22T11:33:06.608Z,98360.86
2018-08-22T11:35:33.167Z,98361.28
2018-08-22T11:38:02.716Z,98355.00
2018-08-22T11:40:31.240Z,98358.44
2018-08-22T11:42:59.457Z,98356.27
2018-08-22T11:45:27.742Z,98355.53
2018-08-22T11:47:56.163Z,98351.05
2018-08-22T11:50:24.377Z,98356.83
2018-08-22T11:52:52.900Z,98351.30
2018-08-22T11:55:21.457Z,98346.67
2018-08-22T11:57:49.675Z,98348.80
2018-08-22T12:00:18.202Z,98351.64
2018-08-22T12:02:46.671Z,98343.37
2018-08-22T12:05:15.213Z,98342.27
2018-08-22T12:07:46.377Z,98339.71
2018-08-22T12:10:14.727Z,98339.16
2018-08-22T12:12:43.378Z,98334.87
2018-08-22T12:15:11.651Z,98334.00
2018-08-22T12:17:40.182Z,98334.22
2018-08-22T12:20:08.500Z,98326.22
2018-08-22T12:22:37.192Z,98328.41
2018-08-22T12:25:06.161Z,98317.09
2018-08-22T12:27:34.667Z,98324.36
2018-08-22T12:30:03.211Z,98332.11
2018-08-22T12:32:31.564Z,98329.19
2018-08-22T12:35:00.836Z,98321.05
2018-08-22T12:37:29.541Z,98318.10
2018-08-22T12:39:57.892Z,98313.79
2018-08-22T12:42:26.181Z,98318.45
2018-08-22T12:44:54.906Z,98317.66
2018-08-22T12:47:23.376Z,98305.06
2018-08-22T12:49:52.034Z,98310.70
2018-08-22T12:52:20.568Z,98311.55
2018-08-22T12:54:49.162Z,98309.92
2018-08-22T12:57:17.553Z,98315.22
2018-08-22T12:59:45.680Z,98310.91
2018-08-22T13:02:14.596Z,98314.38
2018-08-22T13:04:43.102Z,98314.20
2018-08-22T13:07:12.404Z,98309.37
2018-08-22T13:09:40.669Z,98305.88
2018-08-22T13:12:09.009Z,98307.68
2018-08-22T13:14:37.479Z,98301.48
2018-08-22T13:17:05.925Z,98301.86
2018-08-22T13:19:34.233Z,98306.44
2018-08-22T13:22:02.495Z,98299.49
2018-08-22T13:24:31.318Z,98297.97
2018-08-22T13:26:59.879Z,98293.92
2018-08-22T13:29:29.194Z,98295.14
2018-08-22T13:31:57.585Z,98293.27
2018-08-22T13:34:25.931Z,98287.15
2018-08-22T13:36:54.685Z,98292.30
2018-08-22T13:39:23.777Z,98281.92
2018-08-22T13:41:52.192Z,98277.64
2018-08-22T13:44:20.385Z,98278.92
2018-08-22T13:46:49.012Z,98279.80
2018-08-22T13:49:17.600Z,98273.81
2018-08-22T13:51:45.821Z,98270.32
2018-08-22T13:54:14.280Z,98267.38
2018-08-22T13:56:42.506Z,98267.45
2018-08-22T13:59:11.396Z,98267.36
2018-08-22T14:01:40.892Z,98259.06
2018-08-22T14:04:09.522Z,98258.94
2018-08-22T14:06:37.728Z,98256.37
2018-08-22T14:09:08.657Z,98257.38
2018-08-22T14:11:37.939Z,98255.42
2018-08-22T14:14:06.423Z,98257.50
2018-08-22T14:16:35.028Z,98255.48
2018-08-22T14:19:04.428Z,98246.91
2018-08-22T14:21:32.665Z,98250.01
2018-08-22T14:24:02.713Z,98241.77
2018-08-22T14:26:31.388Z,98229.94
2018-08-22T14:28:59.662Z,98233.13
2018-08-22T14:31:27.848Z,98226.89
2018-08-22T14:33:56.332Z,98223.67
2018-08-22T14:36:24.781Z,98228.41
2018-08-22T14:38:53.921Z,98225.68
2018-08-22T14:41:22.702Z,98234.72
2018-08-22T14:43:51.783Z,98237.52
2018-08-22T14:46:20.144Z,98245.08
2018-08-22T14:48:49.153Z,98245.92
2018-08-22T14:51:17.453Z,98249.40
2018-08-22T14:53:46.069Z,98246.48
2018-08-22T14:56:14.712Z,98243.22
2018-08-22T14:58:43.511Z,98231.55
2018-08-22T15:01:12.035Z,98226.66
2018-08-22T15:03:40.209Z,98226.28
2018-08-22T15:06:08.542Z,98222.75
2018-08-22T15:08:37.568Z,98229.64
2018-08-22T15:11:06.483Z,98225.65
2018-08-22T15:13:34.979Z,98224.91
2018-08-22T15:16:03.485Z,98219.77
2018-08-22T15:18:31.801Z,98212.23
2018-08-22T15:21:00.235Z,98221.19
2018-08-22T15:23:28.480Z,98224.21
2018-08-22T15:25:56.809Z,98225.95
2018-08-22T15:28:25.233Z,98225.23
2018-08-22T15:30:53.512Z,98227.12
2018-08-22T15:33:21.768Z,98249.45
2018-08-22T15:35:50.253Z,98252.27
2018-08-22T15:38:18.844Z,98244.78
2018-08-22T15:40:47.415Z,98257.98
2018-08-22T15:43:17.839Z,98267.58
2018-08-22T15:45:46.473Z,98261.33
2018-08-22T15:48:18.613Z,98254.83
2018-08-22T15:50:47.147Z,98256.08
2018-08-22T15:53:16.525Z,98253.36
2018-08-22T15:55:45.460Z,98254.52
2018-08-22T15:58:14.385Z,98247.94
2018-08-22T16:00:45.047Z,98256.34
2018-08-22T16:03:13.355Z,98248.13
2018-08-22T16:05:42.662Z,98237.87
2018-08-22T16:08:11.498Z,98234.03
2018-08-22T16:10:40.309Z,98234.52
2018-08-22T16:13:18.755Z,98236.66
2018-08-22T16:15:49.626Z,98242.78
2018-08-22T16:18:24.648Z,98253.11
2018-08-22T16:20:53.834Z,98253.96
2018-08-22T16:23:25.771Z,98253.06
2018-08-22T16:25:54.678Z,98248.81
2018-08-22T16:28:23.611Z,98243.30
2018-08-22T16:30:57.768Z,98241.23
2018-08-22T16:33:23.277Z,98235.76
2018-08-22T16:35:51.573Z,98241.72
2018-08-22T16:38:20.289Z,98245.86
2018-08-22T16:40:51.330Z,98251.34
2018-08-22T16:43:41.372Z,98253.85
2018-08-22T16:46:12.074Z,98256.23
2018-08-22T16:48:41.732Z,98260.98
2018-08-22T16:51:10.229Z,98253.89
2018-08-22T16:53:38.597Z,98248.83
2018-08-22T16:56:06.886Z,98245.13
2018-08-22T16:58:35.840Z,98235.61
2018-08-22T17:01:04.289Z,98236.39
2018-08-22T17:03:39.473Z,98229.77
2018-08-22T17:06:13.255Z,98226.59
2018-08-22T17:08:41.541Z,98227.70
2018-08-22T17:11:11.383Z,98229.23
2018-08-22T17:13:51.392Z,98227.14
2018-08-22T17:16:20.367Z,98226.43
2018-08-22T17:18:48.626Z,98220.26
2018-08-22T17:26:15.104Z,98222.67
2018-08-22T17:28:47.508Z,98221.59
2018-08-22T17:31:17.100Z,98223.29
2018-08-22T17:33:51.640Z,98223.84
2018-08-22T17:36:20.109Z,98224.69
2018-08-22T17:38:50.635Z,98224.13
2018-08-22T17:41:21.571Z,98224.47
2018-08-22T17:44:06.983Z,98228.47
2018-08-22T17:46:38.361Z,98230.27
2018-08-22T17:49:07.847Z,98230.51
2018-08-22T17:52:09.620Z,98228.48
2018-08-22T17:54:37.977Z,98233.86
2018-08-22T17:57:25.739Z,98232.03
2018-08-22T17:59:57.193Z,98232.37
2018-08-22T18:02:25.745Z,98225.57
2018-08-22T18:05:01.297Z,98230.72
2018-08-22T18:07:29.816Z,98232.92
2018-08-22T18:09:58.190Z,98239.14
2018-08-22T18:12:28.066Z,98234.88
2018-08-22T18:15:00.445Z,98241.55
2018-08-22T18:17:28.891Z,98243.98
2018-08-22T18:19:57.157Z,98246.63
2018-08-22T18:22:32.579Z,98247.36
2018-08-22T18:25:01.795Z,98247.30
2018-08-22T18:27:30.801Z,98241.20
2018-08-22T18:29:59.284Z,98249.20
2018-08-22T18:32:28.102Z,98242.77
2018-08-22T18:35:13.577Z,98249.15
2018-08-22T18:37:42.514Z,98254.35
2018-08-22T18:40:18.070Z,98261.16
2018-08-22T18:42:55.702Z,98264.00
2018-08-22T18:45:24.807Z,98257.72
2018-08-22T18:47:53.064Z,98261.87
2018-08-22T18:50:21.395Z,98263.11
2018-08-22T18:52:53.215Z,98264.55
2018-08-22T18:55:24.317Z,98273.23
2018-08-22T18:57:53.220Z,98274.19
2018-08-22T19:00:22.744Z,98275.88
2018-08-22T19:02:53.249Z,98282.41
2018-08-22T19:05:31.888Z,98284.19
2018-08-22T19:08:12.110Z,98284.50
2018-08-22T19:10:42.040Z,98279.15
2018-08-22T19:13:25.767Z,98286.41
2018-08-22T19:15:57.748Z,98287.72
2018-08-22T19:18:26.265Z,98281.64
2018-08-22T19:20:58.092Z,98290.57
2018-08-22T19:23:26.767Z,98289.77
2018-08-22T19:25:56.084Z,98294.63
2018-08-22T19:28:24.523Z,98294.23
2018-08-22T19:30:53.807Z,98294.64
2018-08-22T19:33:23.564Z,98294.64
2018-08-22T19:35:51.943Z,98294.45
2018-08-22T19:38:27.077Z,98298.59
2018-08-22T19:40:56.366Z,98299.47
2018-08-22T19:43:25.145Z,98298.55
2018-08-22T19:45:53.566Z,98298.86
2018-08-22T19:48:24.402Z,98297.82
2018-08-22T19:50:52.998Z,98292.95
2018-08-22T19:53:21.356Z,98298.63
2018-08-22T19:55:49.772Z,98294.88
2018-08-22T19:58:28.144Z,98295.58
2018-08-22T20:00:58.100Z,98301.14
2018-08-22T20:03:31.340Z,98299.59
2018-08-22T20:06:00.311Z,98297.98
2018-08-22T20:08:32.934Z,98300.30
2018-08-22T20:11:01.511Z,98297.75
2018-08-22T20:13:51.236Z,98299.97
2018-08-22T20:16:20.691Z,98301.89
2018-08-22T20:18:56.427Z,98300.31
2018-08-22T20:21:34.083Z,98305.66
2018-08-22T20:24:03.905Z,98305.62
2018-08-22T20:26:32.552Z,98302.30
2018-08-22T20:29:02.587Z,98299.03
2018-08-22T20:31:31.965Z,98305.18
2018-08-22T20:34:09.475Z,98305.11
2018-08-22T20:36:37.861Z,98304.19
2018-08-22T20:39:10.897Z,98301.70
2018-08-22T20:41:40.175Z,98299.55
2018-08-22T20:44:12.790Z,98298.30
2018-08-22T20:46:42.549Z,98296.28
2018-08-22T20:49:10.909Z,98299.97
2018-08-22T20:51:39.402Z,98295.98
2018-08-22T20:54:09.437Z,98302.74
2018-08-22T20:56:48.529Z,98302.31
2018-08-22T20:59:18.276Z,98301.43
2018-08-22T21:01:52.220Z,98300.22
2018-08-22T21:04:20.611Z,98300.93
2018-08-22T21:06:49.134Z,98298.62
2018-08-22T21:09:17.443Z,98292.39
2018-08-22T21:11:45.813Z,98292.64
2018-08-22T21:14:14.309Z,98294.16
2018-08-22T21:16:43.015Z,98291.53
2018-08-22T21:19:11.351Z,98297.23
2018-08-22T21:21:39.852Z,98293.42
2018-08-22T21:24:08.368Z,98295.94
2018-08-22T21:26:44.795Z,98291.05
2018-08-22T21:29:13.790Z,98291.17
2018-08-22T21:31:41.996Z,98294.67
2018-08-22T21:34:16.049Z,98294.90
2018-08-22T21:36:45.925Z,98288.89
2018-08-22T21:39:19.923Z,98297.20
2018-08-22T21:41:48.640Z,98291.95
2018-08-22T21:44:19.606Z,98293.20
2018-08-22T21:47:00.188Z,98294.31
2018-08-22T21:49:29.090Z,98290.19
2018-08-22T21:51:58.651Z,98290.03
2018-08-22T21:54:28.000Z,98288.78
2018-08-22T21:56:56.297Z,98287.85
2018-08-22T21:59:24.542Z,98286.02
2018-08-22T22:01:58.429Z,98288.75
2018-08-22T22:04:34.701Z,98286.59
2018-08-22T22:07:04.386Z,98288.63
2018-08-22T22:09:33.865Z,98286.70
2018-08-22T22:12:02.693Z,98290.14
2018-08-22T22:14:32.788Z,98292.39
2018-08-22T22:17:02.094Z,98290.31
2018-08-22T22:19:31.669Z,98286.31
2018-08-22T22:22:00.744Z,98286.36
2018-08-22T22:24:29.039Z,98285.92
2018-08-22T22:26:57.479Z,98286.50
2018-08-22T22:29:30.944Z,98282.29
2018-08-22T22:31:59.468Z,98285.34
2018-08-22T22:34:28.096Z,98288.41
2018-08-22T22:36:56.547Z,98287.64
2018-08-22T22:39:36.725Z,98289.81
2018-08-22T22:42:14.648Z,98291.58
2018-08-22T22:44:50.232Z,98289.40
2018-08-22T22:47:24.149Z,98284.08
2018-08-22T22:49:52.985Z,98280.16
2018-08-22T22:52:44.865Z,98282.98
2018-08-22T22:55:13.440Z,98288.56
2018-08-22T22:57:42.940Z,98286.31
2018-08-22T23:00:13.145Z,98283.44
2018-08-22T23:02:42.999Z,98281.48
2018-08-22T23:05:11.491Z,98281.84
2018-08-22T23:07:41.897Z,98284.84
2018-08-22T23:10:14.213Z,98283.23
2018-08-22T23:12:43.817Z,98280.77
2018-08-22T23:15:16.091Z,98286.02
2018-08-22T23:17:46.180Z,98283.16
2018-08-22T23:20:40.229Z,98280.95
2018-08-22T23:23:35.605Z,98282.05
2018-08-22T23:26:11.525Z,98278.44
2018-08-22T23:28:40.457Z,98278.48
2018-08-22T23:31:08.800Z,98279.34
2018-08-22T23:33:37.933Z,98280.39
2018-08-22T23:36:06.657Z,98278.92
2018-08-22T23:38:36.629Z,98275.36
2018-08-22T23:41:05.136Z,98279.16
2018-08-22T23:43:40.094Z,98282.50
2018-08-22T23:46:09.956Z,98275.05
2018-08-22T23:48:38.763Z,98274.88
2018-08-22T23:51:10.553Z,98273.23
2018-08-22T23:53:55.037Z,98276.35
2018-08-22T23:56:28.264Z,98279.39
2018-08-22T23:58:57.056Z,98276.94
